| time (UTC) | temp C | wind direction | speed KPH | gust KPH | rain 1hr cm | rain 24hr cm | rain mn cm | humidity % | barometer mb |
| 20260507212239 | 13 | 39 | 0.0 | 0.0 | 0.00 | 0.00 | 0.00 | 73 | 1012.3 |
| 20260507211739 | 13 | 39 | 0.0 | 0.0 | 0.00 | 0.00 | 0.00 | 73 | 1012.4 |
| 20260507211239 | 13 | 39 | 0.0 | 0.0 | 0.00 | 0.00 | 0.00 | 73 | 1012.3 |
| 20260507210739 | 13 | 39 | 0.0 | 0.0 | 0.00 | 0.00 | 0.00 | 73 | 1012.3 |
| 20260507210239 | 13 | 39 | 0.0 | 0.0 | 0.00 | 0.00 | 0.00 | 73 | 1012.2 |
| 20260507205739 | 13 | 39 | 0.0 | 0.0 | 0.00 | 0.00 | 0.00 | 73 | 1012.2 |
| 20260507205239 | 13 | 39 | 0.0 | 0.0 | 0.00 | 0.00 | 0.00 | 73 | 1012.1 |
| 20260507204739 | 13 | 39 | 0.0 | 0.0 | 0.00 | 0.00 | 0.00 | 72 | 1012.1 |
| 20260507204239 | 13 | 39 | 0.0 | 0.0 | 0.00 | 0.00 | 0.00 | 72 | 1012.0 |
| 20260507203740 | 13 | 39 | 0.0 | 0.0 | 0.00 | 0.00 | 0.00 | 72 | 1011.9 |
| 20260507203240 | 14 | 39 | 0.0 | 0.0 | 0.00 | 0.00 | 0.00 | 72 | 1011.8 |
| 20260507202740 | 14 | 39 | 0.0 | 0.0 | 0.00 | 0.00 | 0.00 | 71 | 1011.9 |
| 20260507202240 | 14 | 39 | 0.0 | 0.0 | 0.00 | 0.00 | 0.00 | 71 | 1011.8 |
| 20260507201740 | 15 | 39 | 0.0 | 0.0 | 0.00 | 0.00 | 0.00 | 70 | 1011.8 |
| 20260507201240 | 15 | 39 | 0.0 | 0.0 | 0.00 | 0.00 | 0.00 | 70 | 1011.8 |
| 20260507200740 | 15 | 39 | 0.0 | 0.0 | 0.00 | 0.00 | 0.00 | 70 | 1011.8 |
| 20260507200240 | 15 | 39 | 0.0 | 0.0 | 0.00 | 0.00 | 0.00 | 69 | 1011.7 |
| 20260507195740 | 15 | 39 | 0.0 | 0.0 | 0.00 | 0.00 | 0.00 | 69 | 1011.7 |
| 20260507195240 | 15 | 39 | 0.0 | 0.0 | 0.00 | 0.00 | 0.00 | 69 | 1011.6 |
| 20260507194740 | 15 | 39 | 0.0 | 0.0 | 0.00 | 0.00 | 0.00 | 68 | 1011.5 |
| 20260507194240 | 15 | 39 | 0.0 | 0.0 | 0.00 | 0.00 | 0.00 | 68 | 1011.4 |
| 20260507193740 | 15 | 39 | 0.0 | 4.8 | 0.00 | 0.00 | 0.00 | 67 | 1011.4 |
| 20260507193240 | 16 | 66 | 4.8 | 4.8 | 0.00 | 0.00 | 0.00 | 67 | 1011.4 |
| 20260507192740 | 16 | 19 | 1.6 | 6.4 | 0.00 | 0.00 | 0.00 | 66 | 1011.3 |
| 20260507192240 | 16 | 0 | 0.0 | 0.0 | 0.00 | 0.00 | 0.00 | 65 | 1011.2 |
| 20260507191740 | 16 | 0 | 0.0 | 0.0 | 0.00 | 0.00 | 0.00 | 64 | 1011.3 |
| 20260507191240 | 16 | 0 | 0.0 | 0.0 | 0.00 | 0.00 | 0.00 | 63 | 1011.3 |
| 20260507190740 | 16 | 0 | 0.0 | 3.2 | 0.00 | 0.00 | 0.00 | 63 | 1011.1 |
| 20260507190240 | 16 | 8 | 0.0 | 0.0 | 0.00 | 0.00 | 0.00 | 62 | 1010.9 |
| 20260507185740 | 17 | 333 | 0.0 | 0.0 | 0.00 | 0.00 | 0.00 | 62 | 1011.1 |
| 20260507185240 | 16 | 333 | 0.0 | 6.4 | 0.00 | 0.00 | 0.00 | 61 | 1011.1 |
| 20260507184740 | 17 | 330 | 0.0 | 3.2 | 0.00 | 0.00 | 0.00 | 61 | 1011.1 |
| 20260507184240 | 16 | 336 | 0.0 | 4.8 | 0.00 | 0.00 | 0.00 | 60 | 1011.1 |
| 20260507183740 | 17 | 333 | 3.2 | 6.4 | 0.00 | 0.00 | 0.00 | 59 | 1011.1 |
| 20260507183240 | 17 | 329 | 0.0 | 1.6 | 0.00 | 0.00 | 0.00 | 59 | 1011.1 |
| 20260507182740 | 17 | 333 | 1.6 | 3.2 | 0.00 | 0.00 | 0.00 | 60 | 1011.2 |
| 20260507182240 | 17 | 343 | 0.0 | 0.0 | 0.00 | 0.00 | 0.00 | 60 | 1011.1 |
| 20260507181740 | 17 | 343 | 0.0 | 6.4 | 0.00 | 0.00 | 0.00 | 60 | 1011.1 |
| 20260507181240 | 17 | 333 | 3.2 | 8.0 | 0.00 | 0.00 | 0.00 | 59 | 1011.1 |
| 20260507180740 | 17 | 2 | 6.4 | 11.3 | 0.00 | 0.00 | 0.00 | 58 | 1011.0 |
| 20260507180240 | 17 | 348 | 0.0 | 0.0 | 0.00 | 0.00 | 0.00 | 59 | 1011.0 |
| 20260507175740 | 17 | 348 | 0.0 | 0.0 | 0.00 | 0.00 | 0.00 | 59 | 1010.9 |
| 20260507175240 | 17 | 348 | 0.0 | 6.4 | 0.00 | 0.00 | 0.00 | 60 | 1010.8 |
| 20260507174740 | 17 | 341 | 4.8 | 8.0 | 0.00 | 0.00 | 0.00 | 60 | 1010.8 |
| 20260507174240 | 17 | 300 | 0.0 | 0.0 | 0.00 | 0.00 | 0.00 | 60 | 1010.9 |
| 20260507173740 | 17 | 300 | 0.0 | 0.0 | 0.00 | 0.00 | 0.00 | 60 | 1010.9 |
| 20260507173240 | 17 | 300 | 0.0 | 0.0 | 0.00 | 0.00 | 0.00 | 61 | 1010.9 |
| 20260507172740 | 17 | 300 | 0.0 | 0.0 | 0.00 | 0.00 | 0.00 | 60 | 1010.8 |
| 20260507172240 | 17 | 300 | 0.0 | 0.0 | 0.00 | 0.00 | 0.00 | 59 | 1010.8 |
| 20260507171740 | 17 | 300 | 0.0 | 0.0 | 0.00 | 0.00 | 0.00 | 57 | 1010.8 |
| 20260507171240 | 17 | 300 | 0.0 | 0.0 | 0.00 | 0.00 | 0.00 | 56 | 1010.9 |
| 20260507170740 | 17 | 300 | 0.0 | 0.0 | 0.00 | 0.00 | 0.00 | 59 | 1010.9 |
| 20260507170240 | 17 | 300 | 0.0 | 0.0 | 0.00 | 0.00 | 0.00 | 60 | 1010.9 |
| 20260507165740 | 17 | 300 | 0.0 | 0.0 | 0.00 | 0.00 | 0.00 | 59 | 1010.9 |
| 20260507165240 | 18 | 300 | 0.0 | 0.0 | 0.00 | 0.00 | 0.00 | 58 | 1010.9 |
| 20260507164740 | 17 | 300 | 0.0 | 0.0 | 0.00 | 0.00 | 0.00 | 57 | 1010.9 |
| 20260507164240 | 18 | 300 | 0.0 | 0.0 | 0.00 | 0.00 | 0.00 | 58 | 1011.0 |
| 20260507163740 | 18 | 300 | 0.0 | 0.0 | 0.00 | 0.00 | 0.00 | 57 | 1011.1 |
| 20260507163240 | 18 | 300 | 0.0 | 0.0 | 0.00 | 0.00 | 0.00 | 57 | 1011.0 |
| 20260507162740 | 18 | 300 | 0.0 | 0.0 | 0.00 | 0.00 | 0.00 | 56 | 1011.1 |
| 20260507162240 | 18 | 300 | 0.0 | 0.0 | 0.00 | 0.00 | 0.00 | 58 | 1011.1 |
| 20260507161740 | 18 | 300 | 0.0 | 0.0 | 0.00 | 0.00 | 0.00 | 57 | 1011.1 |
| 20260507161240 | 18 | 300 | 0.0 | 0.0 | 0.00 | 0.00 | 0.00 | 55 | 1011.1 |
| 20260507160740 | 18 | 300 | 0.0 | 0.0 | 0.00 | 0.00 | 0.00 | 53 | 1011.1 |
| 20260507160240 | 18 | 300 | 0.0 | 0.0 | 0.00 | 0.00 | 0.00 | 55 | 1011.1 |
| 20260507155740 | 18 | 300 | 0.0 | 0.0 | 0.00 | 0.00 | 0.00 | 54 | 1011.1 |
| 20260507155240 | 18 | 300 | 0.0 | 0.0 | 0.00 | 0.00 | 0.00 | 56 | 1011.1 |
| 20260507154740 | 17 | 300 | 0.0 | 0.0 | 0.00 | 0.00 | 0.00 | 55 | 1011.1 |
| 20260507154240 | 18 | 300 | 0.0 | 0.0 | 0.00 | 0.00 | 0.00 | 56 | 1011.1 |
| 20260507153740 | 18 | 300 | 0.0 | 0.0 | 0.00 | 0.00 | 0.00 | 55 | 1011.1 |
| 20260507153240 | 18 | 300 | 0.0 | 0.0 | 0.00 | 0.00 | 0.00 | 54 | 1011.1 |
| 20260507152740 | 18 | 300 | 0.0 | 0.0 | 0.00 | 0.00 | 0.00 | 53 | 1011.1 |
| 20260507152240 | 18 | 300 | 0.0 | 0.0 | 0.00 | 0.00 | 0.00 | 54 | 1011.2 |
| 20260507151740 | 18 | 300 | 0.0 | 0.0 | 0.00 | 0.00 | 0.00 | 51 | 1011.2 |
| 20260507151240 | 18 | 300 | 0.0 | 0.0 | 0.00 | 0.00 | 0.00 | 50 | 1011.1 |
| 20260507150740 | 18 | 300 | 0.0 | 0.0 | 0.00 | 0.00 | 0.00 | 55 | 1011.1 |
| 20260507150240 | 18 | 300 | 0.0 | 0.0 | 0.00 | 0.00 | 0.00 | 53 | 1011.2 |
| 20260507145741 | 18 | 300 | 0.0 | 0.0 | 0.00 | 0.00 | 0.00 | 54 | 1011.4 |
| 20260507145240 | 18 | 300 | 0.0 | 0.0 | 0.00 | 0.00 | 0.00 | 56 | 1011.4 |
| 20260507144740 | 18 | 300 | 0.0 | 0.0 | 0.00 | 0.00 | 0.00 | 56 | 1011.3 |
| 20260507144240 | 18 | 300 | 0.0 | 0.0 | 0.00 | 0.00 | 0.00 | 54 | 1011.3 |
| 20260507143740 | 18 | 300 | 0.0 | 19.3 | 0.00 | 0.00 | 0.00 | 55 | 1011.4 |
| 20260507143240 | 18 | 300 | 0.0 | 0.0 | 0.00 | 0.00 | 0.00 | 54 | 1011.4 |
| 20260507142740 | 18 | 300 | 0.0 | 0.0 | 0.00 | 0.00 | 0.00 | 52 | 1011.5 |
| 20260507142240 | 18 | 300 | 0.0 | 0.0 | 0.00 | 0.00 | 0.00 | 55 | 1011.4 |
| 20260507141740 | 18 | 300 | 0.0 | 0.0 | 0.00 | 0.00 | 0.00 | 53 | 1011.5 |
| 20260507141240 | 18 | 300 | 0.0 | 22.5 | 0.00 | 0.00 | 0.00 | 51 | 1011.6 |
| 20260507140740 | 18 | 300 | 0.0 | 0.0 | 0.00 | 0.00 | 0.00 | 51 | 1011.5 |
| 20260507140240 | 18 | 300 | 0.0 | 0.0 | 0.00 | 0.00 | 0.00 | 50 | 1011.6 |
| 20260507135740 | 18 | 300 | 0.0 | 0.0 | 0.00 | 0.00 | 0.00 | 49 | 1011.6 |
| 20260507135240 | 18 | 300 | 0.0 | 4.8 | 0.00 | 0.00 | 0.00 | 48 | 1011.6 |
| 20260507134740 | 18 | 300 | 0.0 | 0.0 | 0.00 | 0.00 | 0.00 | 49 | 1011.7 |
| 20260507134240 | 18 | 300 | 0.0 | 0.0 | 0.00 | 0.00 | 0.00 | 49 | 1011.7 |
| 20260507133740 | 18 | 300 | 0.0 | 0.0 | 0.00 | 0.00 | 0.00 | 47 | 1011.8 |
| 20260507133240 | 18 | 300 | 0.0 | 17.7 | 0.00 | 0.00 | 0.00 | 49 | 1011.9 |
| 20260507132740 | 18 | 275 | 0.0 | 25.7 | 0.00 | 0.00 | 0.00 | 50 | 1011.9 |
| 20260507132240 | 18 | 312 | 0.0 | 20.9 | 0.00 | 0.00 | 0.00 | 50 | 1011.9 |
| 20260507131740 | 18 | 300 | 0.0 | 0.0 | 0.00 | 0.00 | 0.00 | 50 | 1011.9 |
| 20260507131240 | 18 | 300 | 0.0 | 0.0 | 0.00 | 0.00 | 0.00 | 50 | 1011.9 |
| 20260507130740 | 18 | 300 | 0.0 | 0.0 | 0.00 | 0.00 | 0.00 | 50 | 1011.8 |
| 20260507130240 | 18 | 300 | 0.0 | 0.0 | 0.00 | 0.00 | 0.00 | 52 | 1011.8 |
| 20260507125740 | 18 | 300 | 0.0 | 0.0 | 0.00 | 0.00 | 0.00 | 53 | 1011.8 |
| 20260507125240 | 18 | 300 | 0.0 | 0.0 | 0.00 | 0.00 | 0.00 | 52 | 1011.8 |
| 20260507124741 | 19 | 300 | 0.0 | 0.0 | 0.00 | 0.00 | 0.00 | 51 | 1011.8 |
| 20260507124420 | 18 | 300 | 0.0 | 0.0 | 0.00 | 0.00 | 0.00 | 50 | 1011.8 |
| 20260507124240 | 18 | 300 | 0.0 | 0.0 | 0.00 | 0.00 | 0.00 | 50 | 1011.8 |
| 20260507123920 | 18 | 300 | 0.0 | 0.0 | 0.00 | 0.00 | 0.00 | 52 | 1012.0 |
| 20260507123740 | 18 | 300 | 0.0 | 0.0 | 0.00 | 0.00 | 0.00 | 52 | 1012.0 |
| 20260507123240 | 18 | 300 | 0.0 | 0.0 | 0.00 | 0.00 | 0.00 | 52 | 1011.9 |
| 20260507122740 | 18 | 300 | 0.0 | 0.0 | 0.00 | 0.00 | 0.00 | 52 | 1011.8 |
| 20260507122240 | 18 | 300 | 0.0 | 0.0 | 0.00 | 0.00 | 0.00 | 51 | 1011.9 |
| 20260507121740 | 19 | 300 | 0.0 | 0.0 | 0.00 | 0.00 | 0.00 | 50 | 1011.9 |
| 20260507121240 | 19 | 300 | 0.0 | 0.0 | 0.00 | 0.00 | 0.00 | 50 | 1011.9 |
| 20260507120741 | 19 | 300 | 0.0 | 0.0 | 0.00 | 0.00 | 0.00 | 50 | 1011.8 |
| 20260507120240 | 19 | 300 | 0.0 | 0.0 | 0.00 | 0.00 | 0.00 | 50 | 1011.8 |
| 20260507115740 | 19 | 300 | 0.0 | 0.0 | 0.00 | 0.00 | 0.00 | 48 | 1011.7 |
| 20260507115240 | 19 | 300 | 0.0 | 0.0 | 0.00 | 0.00 | 0.00 | 49 | 1011.7 |
| 20260507114740 | 19 | 300 | 0.0 | 0.0 | 0.00 | 0.00 | 0.00 | 50 | 1011.7 |
| 20260507114240 | 18 | 300 | 0.0 | 0.0 | 0.00 | 0.00 | 0.00 | 51 | 1011.7 |
| 20260507113741 | 18 | 300 | 0.0 | 0.0 | 0.00 | 0.00 | 0.00 | 50 | 1011.8 |
| 20260507113240 | 18 | 300 | 0.0 | 0.0 | 0.00 | 0.00 | 0.00 | 49 | 1011.7 |
| 20260507112744 | 19 | 300 | 0.0 | 0.0 | 0.00 | 0.00 | 0.00 | 47 | 1011.7 |
| 20260507112240 | 19 | 300 | 0.0 | 0.0 | 0.00 | 0.00 | 0.00 | 48 | 1011.6 |
| 20260507111740 | 19 | 300 | 0.0 | 0.0 | 0.00 | 0.00 | 0.00 | 46 | 1011.7 |
| 20260507111240 | 19 | 300 | 0.0 | 0.0 | 0.00 | 0.00 | 0.00 | 47 | 1011.7 |
| 20260507110740 | 18 | 300 | 0.0 | 0.0 | 0.00 | 0.00 | 0.00 | 46 | 1011.7 |
| 20260507110240 | 18 | 300 | 0.0 | 0.0 | 0.00 | 0.00 | 0.00 | 48 | 1011.7 |
| 20260507105740 | 18 | 300 | 0.0 | 0.0 | 0.00 | 0.00 | 0.00 | 50 | 1011.7 |
| 20260507105240 | 18 | 300 | 0.0 | 0.0 | 0.00 | 0.00 | 0.00 | 51 | 1011.8 |
| 20260507104740 | 18 | 300 | 0.0 | 0.0 | 0.00 | 0.00 | 0.00 | 49 | 1011.9 |
| 20260507104240 | 18 | 300 | 0.0 | 0.0 | 0.00 | 0.00 | 0.00 | 49 | 1012.0 |
| 20260507103740 | 18 | 300 | 0.0 | 0.0 | 0.00 | 0.00 | 0.00 | 52 | 1011.9 |
| 20260507103240 | 18 | 300 | 0.0 | 0.0 | 0.00 | 0.00 | 0.00 | 52 | 1012.1 |
| 20260507102740 | 18 | 300 | 0.0 | 0.0 | 0.00 | 0.00 | 0.00 | 52 | 1012.1 |
| 20260507102240 | 18 | 300 | 0.0 | 0.0 | 0.00 | 0.00 | 0.00 | 51 | 1012.0 |
| 20260507101740 | 18 | 300 | 0.0 | 0.0 | 0.00 | 0.00 | 0.00 | 55 | 1012.1 |
| 20260507101240 | 18 | 300 | 0.0 | 0.0 | 0.00 | 0.00 | 0.00 | 53 | 1012.2 |
| 20260507100740 | 18 | 300 | 0.0 | 0.0 | 0.00 | 0.00 | 0.00 | 54 | 1012.2 |
| 20260507100240 | 18 | 300 | 0.0 | 0.0 | 0.00 | 0.00 | 0.00 | 54 | 1012.2 |
| 20260507095741 | 18 | 300 | 0.0 | 0.0 | 0.00 | 0.00 | 0.00 | 54 | 1012.2 |
| 20260507095240 | 18 | 300 | 0.0 | 0.0 | 0.00 | 0.00 | 0.00 | 55 | 1012.2 |
| 20260507094740 | 18 | 300 | 0.0 | 0.0 | 0.00 | 0.00 | 0.00 | 56 | 1012.2 |
| 20260507094241 | 18 | 300 | 0.0 | 0.0 | 0.00 | 0.00 | 0.00 | 54 | 1012.2 |
| 20260507093741 | 18 | 300 | 0.0 | 0.0 | 0.00 | 0.00 | 0.00 | 54 | 1012.2 |
| 20260507093241 | 18 | 300 | 0.0 | 0.0 | 0.00 | 0.00 | 0.00 | 53 | 1012.3 |
| 20260507092741 | 17 | 300 | 0.0 | 0.0 | 0.00 | 0.00 | 0.00 | 54 | 1012.3 |
| 20260507092241 | 18 | 300 | 0.0 | 0.0 | 0.00 | 0.00 | 0.00 | 54 | 1012.2 |
| 20260507091741 | 18 | 300 | 0.0 | 0.0 | 0.00 | 0.00 | 0.00 | 53 | 1012.1 |
| 20260507091241 | 18 | 300 | 0.0 | 0.0 | 0.00 | 0.00 | 0.00 | 53 | 1012.2 |
| 20260507090741 | 18 | 300 | 0.0 | 0.0 | 0.00 | 0.00 | 0.00 | 53 | 1012.1 |
| 20260507090241 | 18 | 300 | 0.0 | 0.0 | 0.00 | 0.00 | 0.00 | 52 | 1012.0 |
| 20260507085741 | 18 | 300 | 0.0 | 12.9 | 0.00 | 0.00 | 0.00 | 54 | 1012.0 |
| 20260507085241 | 18 | 37 | 0.0 | 8.0 | 0.00 | 0.00 | 0.00 | 54 | 1012.0 |
| 20260507084741 | 17 | 320 | 0.0 | 0.0 | 0.00 | 0.00 | 0.00 | 55 | 1012.0 |
| 20260507084241 | 17 | 320 | 0.0 | 0.0 | 0.00 | 0.00 | 0.00 | 54 | 1012.0 |
| 20260507083741 | 17 | 320 | 0.0 | 0.0 | 0.00 | 0.00 | 0.00 | 52 | 1012.1 |
| 20260507083241 | 17 | 320 | 0.0 | 0.0 | 0.00 | 0.00 | 0.00 | 56 | 1012.0 |
| 20260507082741 | 17 | 320 | 0.0 | 9.7 | 0.00 | 0.00 | 0.00 | 56 | 1012.0 |
| 20260507082241 | 17 | 196 | 0.0 | 0.0 | 0.00 | 0.00 | 0.00 | 57 | 1011.9 |
| 20260507081741 | 17 | 196 | 0.0 | 0.0 | 0.00 | 0.00 | 0.00 | 55 | 1012.0 |
| 20260507081241 | 17 | 196 | 0.0 | 1.6 | 0.00 | 0.00 | 0.00 | 56 | 1011.9 |
| 20260507080741 | 17 | 320 | 0.0 | 8.0 | 0.00 | 0.00 | 0.00 | 59 | 1011.9 |
| 20260507080241 | 16 | 350 | 0.0 | 8.0 | 0.00 | 0.00 | 0.00 | 58 | 1011.9 |
| 20260507075741 | 17 | 315 | 4.8 | 9.7 | 0.00 | 0.00 | 0.00 | 60 | 1011.9 |
| 20260507075241 | 16 | 319 | 3.2 | 9.7 | 0.00 | 0.00 | 0.00 | 61 | 1011.9 |
| 20260507074741 | 16 | 333 | 0.0 | 8.0 | 0.00 | 0.00 | 0.00 | 63 | 1011.9 |
| 20260507074241 | 16 | 323 | 8.0 | 8.0 | 0.00 | 0.00 | 0.00 | 64 | 1011.8 |
| 20260507073741 | 16 | 1 | 0.0 | 6.4 | 0.00 | 0.00 | 0.00 | 66 | 1011.8 |
| 20260507073241 | 16 | 323 | 6.4 | 9.7 | 0.00 | 0.00 | 0.00 | 67 | 1011.8 |
| 20260507072741 | 16 | 347 | 0.0 | 0.0 | 0.00 | 0.00 | 0.00 | 68 | 1011.8 |
| 20260507072241 | 16 | 347 | 0.0 | 0.0 | 0.00 | 0.00 | 0.00 | 69 | 1011.8 |
| 20260507071741 | 15 | 347 | 0.0 | 0.0 | 0.00 | 0.00 | 0.00 | 71 | 1011.9 |
| 20260507071241 | 15 | 347 | 0.0 | 0.0 | 0.00 | 0.00 | 0.00 | 71 | 1011.9 |
| 20260507070741 | 15 | 347 | 0.0 | 0.0 | 0.00 | 0.00 | 0.00 | 73 | 1011.8 |
| 20260507070241 | 15 | 347 | 0.0 | 0.0 | 0.00 | 0.00 | 0.00 | 74 | 1011.7 |
| 20260507065741 | 15 | 347 | 0.0 | 0.0 | 0.00 | 0.00 | 0.00 | 76 | 1011.7 |
| 20260507065241 | 15 | 347 | 0.0 | 0.0 | 0.00 | 0.00 | 0.00 | 80 | 1011.6 |
| 20260507064741 | 15 | 347 | 0.0 | 0.0 | 0.00 | 0.00 | 0.00 | 80 | 1011.6 |
| 20260507064241 | 15 | 347 | 0.0 | 0.0 | 0.00 | 0.00 | 0.00 | 81 | 1011.6 |
| 20260507063741 | 15 | 347 | 0.0 | 0.0 | 0.00 | 0.00 | 0.00 | 83 | 1011.6 |
| 20260507063241 | 15 | 347 | 0.0 | 0.0 | 0.00 | 0.00 | 0.00 | 85 | 1011.5 |
| 20260507062741 | 14 | 347 | 0.0 | 0.0 | 0.00 | 0.00 | 0.00 | 86 | 1011.6 |
| 20260507062241 | 14 | 347 | 0.0 | 0.0 | 0.00 | 0.00 | 0.00 | 87 | 1011.5 |
| 20260507061741 | 14 | 347 | 0.0 | 0.0 | 0.00 | 0.00 | 0.00 | 87 | 1011.4 |
| 20260507061241 | 14 | 347 | 0.0 | 0.0 | 0.00 | 0.00 | 0.00 | 88 | 1011.5 |
| 20260507060741 | 13 | 347 | 0.0 | 0.0 | 0.00 | 0.00 | 0.00 | 89 | 1011.6 |
| 20260507060241 | 13 | 347 | 0.0 | 0.0 | 0.00 | 0.00 | 0.00 | 89 | 1011.6 |
| 20260507055741 | 12 | 347 | 0.0 | 0.0 | 0.00 | 0.00 | 0.00 | 90 | 1011.6 |
| 20260507055241 | 12 | 347 | 0.0 | 0.0 | 0.00 | 0.00 | 0.00 | 90 | 1011.6 |
| 20260507054741 | 12 | 347 | 0.0 | 0.0 | 0.00 | 0.00 | 0.00 | 90 | 1011.6 |
| 20260507054241 | 12 | 347 | 0.0 | 0.0 | 0.00 | 0.00 | 0.00 | 89 | 1011.5 |
| 20260507053741 | 12 | 347 | 0.0 | 0.0 | 0.00 | 0.00 | 0.00 | 90 | 1011.5 |
| 20260507053241 | 12 | 347 | 0.0 | 0.0 | 0.00 | 0.00 | 0.00 | 90 | 1011.5 |
| 20260507052741 | 12 | 347 | 0.0 | 0.0 | 0.00 | 0.00 | 0.00 | 91 | 1011.4 |
| 20260507052241 | 11 | 347 | 0.0 | 0.0 | 0.00 | 0.00 | 0.00 | 91 | 1011.3 |
| 20260507051741 | 11 | 347 | 0.0 | 0.0 | 0.00 | 0.00 | 0.00 | 91 | 1011.3 |
| 20260507051241 | 11 | 347 | 0.0 | 0.0 | 0.00 | 0.00 | 0.00 | 91 | 1011.3 |
| 20260507050741 | 11 | 347 | 0.0 | 0.0 | 0.00 | 0.00 | 0.00 | 91 | 1011.2 |
| 20260507050241 | 11 | 347 | 0.0 | 0.0 | 0.00 | 0.00 | 0.00 | 91 | 1011.2 |
| 20260507045741 | 11 | 347 | 0.0 | 0.0 | 0.00 | 0.00 | 0.00 | 91 | 1011.2 |
| 20260507045241 | 11 | 347 | 0.0 | 0.0 | 0.00 | 0.00 | 0.00 | 91 | 1011.1 |
| 20260507044741 | 11 | 347 | 0.0 | 0.0 | 0.00 | 0.00 | 0.00 | 91 | 1011.1 |
| 20260507044241 | 11 | 347 | 0.0 | 0.0 | 0.00 | 0.00 | 0.00 | 91 | 1011.1 |
| 20260507043741 | 11 | 347 | 0.0 | 0.0 | 0.00 | 0.00 | 0.00 | 91 | 1011.1 |
| 20260507043241 | 11 | 347 | 0.0 | 0.0 | 0.00 | 0.00 | 0.00 | 91 | 1011.0 |
| 20260507042741 | 11 | 347 | 0.0 | 0.0 | 0.00 | 0.00 | 0.00 | 91 | 1011.0 |
| 20260507042241 | 11 | 347 | 0.0 | 0.0 | 0.00 | 0.00 | 0.00 | 90 | 1011.1 |
| 20260507041741 | 11 | 347 | 0.0 | 0.0 | 0.00 | 0.00 | 0.00 | 90 | 1011.0 |
| 20260507041241 | 11 | 347 | 0.0 | 0.0 | 0.00 | 0.00 | 0.00 | 90 | 1011.0 |
| 20260507040741 | 11 | 347 | 0.0 | 0.0 | 0.00 | 0.00 | 0.00 | 90 | 1011.0 |
| 20260507040241 | 11 | 347 | 0.0 | 0.0 | 0.00 | 0.00 | 0.00 | 90 | 1011.0 |
| 20260507035741 | 11 | 347 | 0.0 | 0.0 | 0.00 | 0.00 | 0.00 | 90 | 1011.0 |
| 20260507035241 | 11 | 347 | 0.0 | 0.0 | 0.00 | 0.00 | 0.00 | 90 | 1011.0 |
| 20260507034741 | 11 | 347 | 0.0 | 0.0 | 0.00 | 0.00 | 0.00 | 90 | 1010.9 |
| 20260507034241 | 11 | 347 | 0.0 | 0.0 | 0.00 | 0.00 | 0.00 | 90 | 1010.9 |
| 20260507033741 | 11 | 347 | 0.0 | 0.0 | 0.00 | 0.00 | 0.00 | 90 | 1010.9 |
| 20260507033241 | 11 | 347 | 0.0 | 0.0 | 0.00 | 0.00 | 0.00 | 90 | 1010.9 |
| 20260507032741 | 11 | 347 | 0.0 | 0.0 | 0.00 | 0.00 | 0.00 | 90 | 1010.9 |
| 20260507032241 | 11 | 347 | 0.0 | 0.0 | 0.00 | 0.00 | 0.00 | 90 | 1010.9 |
| 20260507031741 | 11 | 347 | 0.0 | 0.0 | 0.00 | 0.00 | 0.00 | 90 | 1010.9 |
| 20260507031241 | 11 | 347 | 0.0 | 0.0 | 0.00 | 0.00 | 0.00 | 90 | 1010.8 |
| 20260507030741 | 12 | 347 | 0.0 | 0.0 | 0.00 | 0.00 | 0.00 | 89 | 1010.9 |
| 20260507030241 | 12 | 347 | 0.0 | 0.0 | 0.00 | 0.00 | 0.00 | 89 | 1010.9 |
| 20260507025741 | 12 | 347 | 0.0 | 0.0 | 0.00 | 0.00 | 0.00 | 89 | 1011.0 |
| 20260507025241 | 12 | 347 | 0.0 | 0.0 | 0.00 | 0.00 | 0.00 | 89 | 1011.0 |
| 20260507024741 | 12 | 347 | 0.0 | 0.0 | 0.00 | 0.00 | 0.00 | 89 | 1011.0 |
| 20260507024241 | 12 | 347 | 0.0 | 0.0 | 0.00 | 0.00 | 0.00 | 89 | 1011.0 |
| 20260507023741 | 12 | 347 | 0.0 | 0.0 | 0.00 | 0.00 | 0.00 | 89 | 1011.1 |
| 20260507023241 | 12 | 347 | 0.0 | 0.0 | 0.00 | 0.00 | 0.00 | 89 | 1011.1 |
| 20260507022741 | 12 | 347 | 0.0 | 0.0 | 0.00 | 0.00 | 0.00 | 88 | 1011.1 |
| 20260507022241 | 12 | 347 | 0.0 | 0.0 | 0.00 | 0.00 | 0.00 | 88 | 1011.0 |
| 20260507021741 | 12 | 347 | 0.0 | 0.0 | 0.00 | 0.00 | 0.00 | 88 | 1011.0 |
| 20260507021241 | 12 | 347 | 0.0 | 0.0 | 0.00 | 0.00 | 0.00 | 88 | 1011.0 |
| 20260507020741 | 12 | 347 | 0.0 | 0.0 | 0.00 | 0.00 | 0.00 | 88 | 1011.0 |
| 20260507020241 | 12 | 347 | 0.0 | 0.0 | 0.00 | 0.00 | 0.00 | 88 | 1011.1 |
| 20260507015741 | 12 | 347 | 0.0 | 0.0 | 0.00 | 0.00 | 0.00 | 88 | 1011.1 |
| 20260507015241 | 12 | 347 | 0.0 | 0.0 | 0.00 | 0.00 | 0.00 | 88 | 1011.1 |
| 20260507014741 | 12 | 347 | 0.0 | 0.0 | 0.00 | 0.00 | 0.00 | 87 | 1011.1 |
| 20260507014241 | 12 | 347 | 0.0 | 0.0 | 0.00 | 0.00 | 0.00 | 87 | 1011.0 |
| 20260507013741 | 12 | 347 | 0.0 | 0.0 | 0.00 | 0.00 | 0.00 | 87 | 1011.1 |
| 20260507013241 | 12 | 347 | 0.0 | 0.0 | 0.00 | 0.00 | 0.00 | 87 | 1011.1 |
| 20260507012741 | 13 | 347 | 0.0 | 0.0 | 0.00 | 0.00 | 0.00 | 87 | 1011.0 |
| 20260507012241 | 13 | 347 | 0.0 | 0.0 | 0.00 | 0.00 | 0.00 | 87 | 1011.1 |
| 20260507011741 | 12 | 347 | 0.0 | 0.0 | 0.00 | 0.00 | 0.00 | 87 | 1011.1 |
| 20260507011241 | 13 | 347 | 0.0 | 0.0 | 0.00 | 0.00 | 0.00 | 86 | 1011.1 |
| 20260507010741 | 13 | 347 | 0.0 | 0.0 | 0.00 | 0.00 | 0.00 | 86 | 1011.1 |
| 20260507010241 | 13 | 347 | 0.0 | 0.0 | 0.00 | 0.00 | 0.00 | 86 | 1011.1 |
| 20260507005741 | 13 | 347 | 0.0 | 0.0 | 0.00 | 0.00 | 0.00 | 86 | 1011.2 |
| 20260507005241 | 13 | 347 | 0.0 | 0.0 | 0.00 | 0.03 | 0.00 | 86 | 1011.3 |
| 20260507004741 | 13 | 347 | 0.0 | 0.0 | 0.00 | 0.03 | 0.00 | 86 | 1011.3 |
| 20260507004241 | 13 | 347 | 0.0 | 0.0 | 0.00 | 0.03 | 0.00 | 86 | 1011.3 |
| 20260507003741 | 13 | 347 | 0.0 | 0.0 | 0.00 | 0.03 | 0.00 | 85 | 1011.2 |
| 20260507003241 | 13 | 347 | 0.0 | 0.0 | 0.00 | 0.03 | 0.00 | 85 | 1011.2 |
| 20260507002741 | 13 | 347 | 0.0 | 0.0 | 0.00 | 0.03 | 0.00 | 85 | 1011.3 |
| 20260507002241 | 13 | 347 | 0.0 | 0.0 | 0.00 | 0.03 | 0.00 | 85 | 1011.3 |
| 20260507001741 | 13 | 347 | 0.0 | 0.0 | 0.00 | 0.03 | 0.00 | 85 | 1011.4 |
| 20260507001241 | 13 | 347 | 0.0 | 0.0 | 0.00 | 0.03 | 0.00 | 84 | 1011.3 |
| 20260507000741 | 13 | 347 | 0.0 | 0.0 | 0.00 | 0.03 | 0.00 | 84 | 1011.4 |
| 20260507000241 | 13 | 347 | 0.0 | 0.0 | 0.00 | 0.03 | 0.00 | 84 | 1011.4 |
| 20260506235741 | 13 | 347 | 0.0 | 0.0 | 0.00 | 0.03 | 0.00 | 84 | 1011.4 |
| 20260506235241 | 14 | 347 | 0.0 | 0.0 | 0.00 | 0.64 | 0.00 | 83 | 1011.4 |
| 20260506234741 | 14 | 347 | 0.0 | 0.0 | 0.00 | 0.64 | 0.00 | 83 | 1011.5 |
| 20260506234241 | 14 | 347 | 0.0 | 0.0 | 0.00 | 0.64 | 0.00 | 83 | 1011.5 |
| 20260506233741 | 14 | 347 | 0.0 | 0.0 | 0.00 | 0.64 | 0.00 | 82 | 1011.6 |
| 20260506233241 | 14 | 347 | 0.0 | 0.0 | 0.00 | 0.64 | 0.00 | 82 | 1011.6 |
| 20260506232741 | 14 | 347 | 0.0 | 0.0 | 0.00 | 0.64 | 0.00 | 82 | 1011.7 |
| 20260506232241 | 15 | 347 | 0.0 | 0.0 | 0.00 | 0.64 | 0.00 | 81 | 1011.7 |
| 20260506231741 | 15 | 347 | 0.0 | 0.0 | 0.00 | 0.64 | 0.00 | 81 | 1011.7 |
| 20260506231241 | 15 | 347 | 0.0 | 0.0 | 0.00 | 0.64 | 0.00 | 81 | 1011.7 |
| 20260506230741 | 15 | 347 | 0.0 | 0.0 | 0.00 | 0.64 | 0.00 | 81 | 1011.8 |
| 20260506230241 | 15 | 347 | 0.0 | 0.0 | 0.00 | 0.64 | 0.00 | 81 | 1011.8 |
| 20260506225742 | 15 | 347 | 0.0 | 1.6 | 0.00 | 0.64 | 0.00 | 81 | 1011.8 |
| 20260506225242 | 15 | 347 | 1.6 | 9.7 | 0.00 | 1.22 | 0.00 | 81 | 1011.8 |
| 20260506224742 | 15 | 343 | 6.4 | 16.1 | 0.00 | 1.22 | 0.00 | 81 | 1011.8 |
| 20260506224242 | 15 | 331 | 14.5 | 16.1 | 0.00 | 1.22 | 0.00 | 81 | 1011.8 |
| 20260506223741 | 15 | 345 | 0.0 | 17.7 | 0.00 | 1.22 | 0.00 | 80 | 1011.8 |
| 20260506223242 | 15 | 322 | 17.7 | 17.7 | 0.00 | 1.22 | 0.00 | 80 | 1011.9 |
| 20260506222742 | 15 | 327 | 9.7 | 14.5 | 0.00 | 1.22 | 0.00 | 80 | 1011.9 |
| 20260506222242 | 15 | 8 | 8.0 | 14.5 | 0.00 | 1.22 | 0.00 | 80 | 1011.9 |
| 20260506221742 | 15 | 323 | 9.7 | 24.1 | 0.00 | 1.22 | 0.00 | 80 | 1011.9 |
| 20260506221242 | 15 | 300 | 4.8 | 29.0 | 0.00 | 1.22 | 0.00 | 79 | 1011.9 |
| 20260506220742 | 15 | 326 | 16.1 | 17.7 | 0.00 | 1.22 | 0.00 | 79 | 1011.9 |
| 20260506220242 | 15 | 340 | 0.0 | 14.5 | 0.00 | 1.22 | 0.00 | 78 | 1011.9 |
| 20260506215742 | 15 | 330 | 8.0 | 12.9 | 0.00 | 1.22 | 1.47 | 78 | 1011.8 |
| 20260506215242 | 15 | 348 | 1.6 | 14.5 | 0.00 | 1.47 | 1.47 | 78 | 1011.9 |
| 20260506214742 | 15 | 324 | 11.3 | 20.9 | 0.00 | 1.47 | 1.47 | 79 | 1011.8 |
| 20260506214242 | 15 | 300 | 4.8 | 20.9 | 0.00 | 1.47 | 1.47 | 79 | 1011.9 |
| 20260506213742 | 15 | 344 | 3.2 | 8.0 | 0.00 | 1.47 | 1.47 | 77 | 1011.8 |
| 20260506213242 | 14 | 2 | 6.4 | 11.3 | 0.00 | 1.47 | 1.47 | 78 | 1011.8 |
| 20260506212742 | 14 | 8 | 0.0 | 6.4 | 0.00 | 1.47 | 1.47 | 76 | 1011.8 |